Ludell, Kansas
Current Conditions -  °F | °C
As of 3:15 PM on Monday 22 Dec 2014 (Local Time) from KCBK Reporting Station
Clear Clear  
Wind Chill: 38°   Ceiling: Unl
Heat Index: 46°   Visibility: 10mi
Dew Point: 30°   Wind: 24mph
Humidity: 53%   Direction: 310°NW
Pressure: 29.6"   Gusts: 31mph
Location:  39.86°N, 100.96°W
Report Text: KCBK 222115Z AUTO 31021G27KT 10SM CLR 08/M01 A2960 RMK AO2
Loading
Personal Weather Stations






























Interactive Weather Map New forecast layout! Learn more

10-Day Weather Forecast

Advertisements
Track Severe Weather on mobile